Dades meteomassalio
Diari Summary for Febrer 28, 2017 Units:  English    Metric   Both
« Previous Day
Next Day »
Diari Semanal Mensual Anual Personalitzat
  Maxima: Minima: Mijana:
Temperatura: TemperatureC °F 8.5 °F 12.6 °F
Rosada: DewpointC °F 3.3 °F 4.9 °F
Humitat: Humidity % 43 % 60 %
Velocitat del vent: WindSpeedKMH mph 0.0 mph 23.2 mph
Racha vent: WindSpeedGustKMH mph - -
Vent:- - WNW
Pressio: PressurehPa in 1009.0 in -
Pluja: 0.0 in    
Historical Graphs
 
 
Tabular Data for Febrer 28, 2017
Time Temperature Dew Point Pressure Wind Wind Speed Wind Gust Humidity Rainfall Rate (Hourly) solar Conditions
TemperatureC °F DewpointC °F PressurehPa in Calm     Humidity % HourlyPrecipMM in SolarRadiationWatts/m^2 W/m2 Conditions
00:02 12.3 °F 4.0 °F 1012.8 in WSW 1.9 mph 1.9 mph 57 % 0.0 in 0.0 W/m2 RA
00:07 12.1 °F 4.1 °F 1012.8 in WSW 13.0 mph 13.0 mph 58 % 0.0 in 0.0 W/m2 CLR
00:12 12.1 °F 4.1 °F 1012.4 in SW 9.3 mph 9.3 mph 58 % 0.0 in 0.0 W/m2 CLR
00:17 12.0 °F 4.0 °F 1012.8 in SW 4.8 mph 4.8 mph 58 % 0.0 in 0.0 W/m2 CLR
00:22 11.9 °F 3.9 °F 1012.4 in Calm     58 % 0.0 in 0.0 W/m2 CLR
00:27 11.8 °F 4.0 °F 1012.4 in Calm     59 % 0.0 in 0.0 W/m2 CLR
00:32 11.5 °F 4.0 °F 1012.4 in WNW 11.1 mph 11.1 mph 60 % 0.0 in 0.0 W/m2 CLR
00:37 11.8 °F 4.1 °F 1012.4 in WSW 20.4 mph 20.4 mph 59 % 0.0 in 0.0 W/m2 CLR
00:42 12.3 °F 4.3 °F 1012.4 in WNW 9.3 mph 9.3 mph 58 % 0.0 in 0.0 W/m2 CLR
00:47 12.4 °F 4.1 °F 1012.8 in Calm     57 % 0.0 in 0.0 W/m2 CLR
00:52 12.2 °F 4.2 °F 1012.4 in West 5.6 mph 5.6 mph 58 % 0.0 in 0.0 W/m2 CLR
00:57 12.3 °F 4.2 °F 1012.4 in WSW 18.5 mph 18.5 mph 58 % 0.0 in 0.0 W/m2 CLR
01:02 12.4 °F 4.1 °F 1012.4 in West 11.3 mph 11.3 mph 57 % 0.0 in 0.0 W/m2 CLR
01:07 12.3 °F 4.2 °F 1012.4 in West 14.8 mph 14.8 mph 58 % 0.0 in 0.0 W/m2 CLR
01:12 12.3 °F 4.3 °F 1012.4 in NW 18.5 mph 18.5 mph 58 % 0.0 in 0.0 W/m2 CLR
01:17 12.4 °F 4.3 °F 1012.4 in WNW 22.2 mph 22.2 mph 58 % 0.0 in 0.0 W/m2 CLR
01:22 12.6 °F 4.3 °F 1012.4 in West 22.5 mph 22.5 mph 57 % 0.0 in 0.0 W/m2 CLR
01:27 12.6 °F 4.3 °F 1012.4 in West 22.2 mph 22.2 mph 57 % 0.0 in 0.0 W/m2 CLR
01:32 12.6 °F 4.3 °F 1012.4 in West 14.8 mph 14.8 mph 57 % 0.0 in 0.0 W/m2 CLR
01:37 12.4 °F 4.2 °F 1012.4 in West 18.5 mph 18.5 mph 57 % 0.0 in 0.0 W/m2 CLR
01:42 12.5 °F 4.2 °F 1012.4 in West 33.3 mph 33.3 mph 57 % 0.0 in 0.0 W/m2 CLR
01:47 12.8 °F 4.2 °F 1012.4 in WSW 27.8 mph 27.8 mph 56 % 0.0 in 0.0 W/m2 CLR
01:52 12.8 °F 4.3 °F 1012.4 in West 24.1 mph 24.1 mph 56 % 0.0 in 0.0 W/m2 CLR
01:57 12.9 °F 4.1 °F 1012.4 in West 33.3 mph 33.3 mph 55 % 0.0 in 0.0 W/m2 CLR
02:02 12.9 °F 4.3 °F 1012.4 in West 25.7 mph 25.7 mph 56 % 0.0 in 0.0 W/m2 CLR
02:07 12.8 °F 4.3 °F 1012.4 in WSW 24.1 mph 24.1 mph 56 % 0.0 in 0.0 W/m2 CLR
02:12 12.7 °F 4.1 °F 1012.1 in West 22.2 mph 22.2 mph 56 % 0.0 in 0.0 W/m2 CLR
02:17 12.6 °F 4.0 °F 1012.1 in WSW 18.5 mph 18.5 mph 56 % 0.0 in 0.0 W/m2 CLR
02:22 12.4 °F 4.1 °F 1012.1 in WNW 18.5 mph 18.5 mph 57 % 0.0 in 0.0 W/m2 CLR
02:27 12.3 °F 4.1 °F 1012.1 in WNW 20.4 mph 20.4 mph 57 % 0.0 in 0.0 W/m2 CLR
02:33 12.3 °F 4.2 °F 1012.1 in WNW 18.5 mph 19.5 mph 58 % 0.0 in 0.0 W/m2 CLR
02:43 12.2 °F 4.2 °F 1011.7 in WNW 22.2 mph 22.2 mph 58 % 0.0 in 0.0 W/m2 CLR
02:48 12.2 °F 4.2 °F 1011.7 in West 20.4 mph 20.4 mph 58 % 0.0 in 0.0 W/m2 CLR
02:53 12.1 °F 4.3 °F 1011.7 in West 18.5 mph 18.5 mph 59 % 0.0 in 0.0 W/m2 CLR
02:58 12.0 °F 4.2 °F 1011.4 in SW 7.4 mph 7.4 mph 59 % 0.0 in 0.0 W/m2 CLR
03:03 11.7 °F 3.9 °F 1011.7 in Calm     59 % 0.0 in 0.0 W/m2 CLR
03:08 11.5 °F 4.0 °F 1011.7 in Calm     60 % 0.0 in 0.0 W/m2 CLR
03:13 11.2 °F 3.9 °F 1011.4 in Calm     61 % 0.0 in 0.0 W/m2 CLR
03:18 11.1 °F 4.1 °F 1011.4 in Calm     62 % 0.0 in 0.0 W/m2 CLR
03:23 10.9 °F 3.9 °F 1011.4 in Calm     62 % 0.0 in 0.0 W/m2 CLR
03:28 10.8 °F 4.1 °F 1011.4 in WSW 3.7 mph 3.7 mph 63 % 0.0 in 0.0 W/m2 CLR
03:33 10.8 °F 4.1 °F 1011.4 in West 5.6 mph 5.6 mph 63 % 0.0 in 0.0 W/m2 CLR
03:38 10.9 °F 4.1 °F 1011.1 in WSW 11.1 mph 11.1 mph 63 % 0.0 in 0.0 W/m2 CLR
03:43 11.3 °F 4.3 °F 1011.4 in West 24.1 mph 24.1 mph 62 % 0.0 in 0.0 W/m2 CLR
03:48 11.8 °F 4.3 °F 1011.1 in SW 18.5 mph 18.5 mph 60 % 0.0 in 0.0 W/m2 CLR
03:53 11.8 °F 4.3 °F 1011.1 in SW 24.1 mph 24.1 mph 60 % 0.0 in 0.0 W/m2 CLR
03:58 11.8 °F 4.3 °F 1011.1 in West 31.5 mph 31.5 mph 60 % 0.0 in 0.0 W/m2 CLR
04:03 12.1 °F 4.3 °F 1011.1 in West 27.8 mph 27.8 mph 59 % 0.0 in 0.0 W/m2 CLR
04:08 12.2 °F 4.4 °F 1011.1 in West 27.8 mph 27.8 mph 59 % 0.0 in 0.0 W/m2 CLR
04:13 12.2 °F 4.4 °F 1011.1 in West 18.5 mph 18.5 mph 59 % 0.0 in 0.0 W/m2 CLR
04:18 12.1 °F 4.3 °F 1011.1 in West 29.6 mph 29.6 mph 59 % 0.0 in 0.0 W/m2 CLR
04:23 12.1 °F 4.3 °F 1011.1 in WNW 25.9 mph 25.9 mph 59 % 0.0 in 0.0 W/m2 CLR
04:28 12.1 °F 4.6 °F 1010.7 in WSW 20.4 mph 20.4 mph 60 % 0.0 in 0.0 W/m2 CLR
04:33 12.1 °F 4.5 °F 1011.1 in West 18.5 mph 18.5 mph 60 % 0.0 in 0.0 W/m2 CLR
04:38 11.9 °F 4.4 °F 1011.1 in West 22.5 mph 22.5 mph 60 % 0.0 in 0.0 W/m2 CLR
04:43 11.9 °F 4.4 °F 1011.1 in SW 22.2 mph 22.2 mph 60 % 0.0 in 0.0 W/m2 CLR
04:48 11.7 °F 4.4 °F 1011.1 in West 18.5 mph 18.5 mph 61 % 0.0 in 0.0 W/m2 CLR
04:53 11.6 °F 4.3 °F 1011.1 in West 18.5 mph 18.5 mph 61 % 0.0 in 0.0 W/m2 CLR
04:58 11.4 °F 4.4 °F 1011.1 in West 18.5 mph 18.5 mph 62 % 0.0 in 0.0 W/m2 CLR
05:03 11.4 °F 4.3 °F 1011.1 in WSW 14.8 mph 14.8 mph 62 % 0.0 in 0.0 W/m2 CLR
05:08 11.3 °F 4.5 °F 1011.1 in WSW 3.7 mph 3.7 mph 63 % 0.0 in 0.0 W/m2 CLR
05:13 11.1 °F 4.3 °F 1011.1 in WSW 9.3 mph 9.3 mph 63 % 0.0 in 0.0 W/m2 CLR
05:18 10.8 °F 4.3 °F 1011.1 in West 6.4 mph 6.4 mph 64 % 0.0 in 0.0 W/m2 CLR
05:23 10.6 °F 4.3 °F 1011.1 in West 5.6 mph 5.6 mph 65 % 0.0 in 0.0 W/m2 CLR
05:28 10.4 °F 4.3 °F 1011.1 in WSW 7.4 mph 7.4 mph 66 % 0.0 in 0.0 W/m2 CLR
05:33 10.5 °F 4.4 °F 1011.1 in WSW 7.4 mph 7.4 mph 66 % 0.0 in 0.0 W/m2 CLR
05:38 10.5 °F 4.4 °F 1011.1 in WSW 5.6 mph 5.6 mph 66 % 0.0 in 0.0 W/m2 CLR
05:43 10.5 °F 4.6 °F 1011.1 in West 13.0 mph 13.0 mph 67 % 0.0 in 0.0 W/m2 CLR
05:48 10.9 °F 4.8 °F 1011.1 in West 19.3 mph 19.3 mph 66 % 0.0 in 0.0 W/m2 CLR
05:53 11.2 °F 4.9 °F 1011.1 in West 18.5 mph 18.5 mph 65 % 0.0 in 0.0 W/m2 CLR
05:58 11.2 °F 4.9 °F 1011.1 in WNW 16.7 mph 16.7 mph 65 % 0.0 in 0.0 W/m2 CLR
06:03 11.2 °F 4.9 °F 1011.1 in West 5.6 mph 5.6 mph 65 % 0.0 in 0.0 W/m2 CLR
06:08 11.2 °F 4.9 °F 1011.1 in West 18.5 mph 18.5 mph 65 % 0.0 in 0.0 W/m2 CLR
06:13 11.2 °F 4.8 °F 1011.1 in West 5.6 mph 5.6 mph 65 % 0.0 in 0.0 W/m2 CLR
06:18 11.1 °F 4.7 °F 1011.1 in WNW 4.8 mph 4.8 mph 65 % 0.0 in 0.0 W/m2 CLR
06:23 10.9 °F 4.8 °F 1011.1 in WNW 6.4 mph 6.4 mph 66 % 0.0 in 0.0 W/m2 CLR
06:28 10.9 °F 4.8 °F 1011.1 in West 13.0 mph 13.0 mph 66 % 0.0 in 0.0 W/m2 CLR
06:33 11.1 °F 5.0 °F 1011.1 in WNW 9.3 mph 9.3 mph 66 % 0.0 in 0.0 W/m2 CLR
06:38 11.1 °F 4.9 °F 1011.1 in WNW 7.4 mph 7.4 mph 66 % 0.0 in 0.0 W/m2 CLR
06:43 10.9 °F 4.8 °F 1011.1 in WNW 7.4 mph 7.4 mph 66 % 0.0 in 0.0 W/m2 CLR
06:48 10.8 °F 4.7 °F 1011.1 in West 8.0 mph 8.0 mph 66 % 0.0 in 0.0 W/m2 CLR
06:53 10.9 °F 4.8 °F 1011.4 in WNW 7.4 mph 7.4 mph 66 % 0.0 in 0.0 W/m2 CLR
06:58 10.9 °F 4.8 °F 1011.1 in West 8.0 mph 8.0 mph 66 % 0.0 in 0.0 W/m2 CLR
07:03 11.0 °F 4.9 °F 1011.1 in West 8.0 mph 8.0 mph 66 % 0.0 in 0.0 W/m2 CLR
07:08 11.0 °F 4.9 °F 1011.1 in West 8.0 mph 8.0 mph 66 % 0.0 in 0.0 W/m2 CLR
07:13 11.0 °F 4.9 °F 1011.1 in West 6.4 mph 6.4 mph 66 % 0.0 in 0.0 W/m2 CLR
07:18 10.9 °F 4.8 °F 1011.1 in West 5.6 mph   66 % 0.0 in 0.0 W/m2 CLR
07:23 10.8 °F 4.9 °F 1011.1 in Calm     67 % 0.0 in 0.0 W/m2 CLR
07:28 10.5 °F 4.6 °F 1011.4 in Calm     67 % 0.0 in 0.0 W/m2 OVC
07:33 10.2 °F 4.6 °F 1011.4 in Calm     68 % 0.0 in 0.0 W/m2 OVC
07:38 9.8 °F 4.6 °F 1011.1 in Calm     70 % 0.0 in 5.0 W/m2 OVC
07:43 9.4 °F 4.4 °F 1011.1 in Calm     71 % 0.0 in 7.0 W/m2 BKN
07:48 9.2 °F 4.4 °F 1011.1 in Calm     72 % 0.0 in 11.0 W/m2 BKN
07:53 9.2 °F 4.6 °F 1011.1 in Calm     73 % 0.0 in 19.0 W/m2 BKN
07:58 9.1 °F 4.5 °F 1011.4 in WSW 3.7 mph   73 % 0.0 in 28.0 W/m2 BKN
08:04 9.2 °F 4.8 °F 1011.4 in Calm     74 % 0.0 in 35.0 W/m2 BKN
08:09 9.2 °F 4.8 °F 1011.4 in Calm     74 % 0.0 in 39.0 W/m2 BKN
08:14 9.1 °F 4.7 °F 1011.4 in Calm     74 % 0.0 in 40.0 W/m2 BKN
08:19 8.8 °F 4.7 °F 1011.4 in WSW 5.6 mph 5.6 mph 75 % 0.0 in 44.0 W/m2 BKN
08:24 8.9 °F 4.9 °F 1011.4 in WSW 5.6 mph   76 % 0.0 in 47.0 W/m2 SCT
08:29 9.2 °F 4.9 °F 1011.7 in Calm     75 % 0.0 in 54.0 W/m2 SCT
08:34 9.3 °F 5.1 °F 1011.7 in Calm     75 % 0.0 in 63.0 W/m2 SCT
08:39 9.6 °F 5.2 °F 1011.7 in Calm     74 % 0.0 in 69.0 W/m2 SCT
08:44 9.8 °F 5.2 °F 1011.7 in Calm     73 % 0.0 in 72.0 W/m2 FEW
08:49 9.8 °F 5.2 °F 1011.7 in Calm     73 % 0.0 in 79.0 W/m2 FEW
08:54 9.7 °F 5.3 °F 1011.7 in Calm     74 % 0.0 in 84.0 W/m2 FEW
08:59 9.6 °F 5.3 °F 1012.1 in Calm     75 % 0.0 in 91.0 W/m2 FEW
09:04 9.4 °F 5.2 °F 1011.7 in Calm     75 % 0.0 in 102.0 W/m2 CLR
09:09 9.3 °F 5.3 °F 1012.1 in Calm     76 % 0.0 in 121.0 W/m2 CLR
09:19 9.7 °F 5.6 °F 1012.1 in Calm     76 % 0.0 in 135.0 W/m2 CLR
09:24 9.6 °F 5.6 °F 1012.1 in Calm     76 % 0.0 in 135.0 W/m2 CLR
09:29 9.8 °F 5.9 °F 1012.1 in WNW 6.4 mph 6.4 mph 77 % 0.0 in 144.0 W/m2 CLR
09:34 10.4 °F 5.9 °F 1012.1 in West 5.6 mph 5.6 mph 74 % 0.0 in 141.0 W/m2 CLR
09:39 11.1 °F 6.1 °F 1012.1 in WNW 9.7 mph 9.7 mph 71 % 0.0 in 123.0 W/m2 CLR
09:44 11.9 °F 5.9 °F 1012.1 in West 13.0 mph 13.0 mph 67 % 0.0 in 114.0 W/m2 CLR
09:49 12.2 °F 5.8 °F 1012.1 in West 13.0 mph 13.0 mph 65 % 0.0 in 121.0 W/m2 CLR
09:54 12.4 °F 5.8 °F 1012.1 in West 14.8 mph 14.8 mph 64 % 0.0 in 176.0 W/m2 CLR
09:59 12.5 °F 5.9 °F 1012.1 in West 11.1 mph 11.1 mph 64 % 0.0 in 190.0 W/m2 CLR
10:04 12.6 °F 5.7 °F 1012.1 in West 7.4 mph 7.4 mph 63 % 0.0 in 179.0 W/m2 CLR
10:09 12.7 °F 6.1 °F 1012.1 in West 9.3 mph 9.3 mph 64 % 0.0 in 167.0 W/m2 CLR
10:14 12.7 °F 6.1 °F 1011.7 in Calm     64 % 0.0 in 179.0 W/m2 CLR
10:19 12.8 °F 6.4 °F 1011.7 in Calm     65 % 0.0 in 183.0 W/m2 CLR
10:24 12.9 °F 6.2 °F 1011.7 in Calm     64 % 0.0 in 167.0 W/m2 CLR
10:29 12.9 °F 6.5 °F 1011.7 in Calm     65 % 0.0 in 153.0 W/m2 CLR
10:34 13.1 °F 6.2 °F 1011.7 in WNW 11.1 mph 11.1 mph 63 % 0.0 in 151.0 W/m2 CLR
10:39 13.2 °F 6.1 °F 1011.7 in NW 7.4 mph 7.4 mph 62 % 0.0 in 174.0 W/m2 CLR
10:44 13.2 °F 6.3 °F 1011.7 in NNW 5.6 mph 5.6 mph 63 % 0.0 in 232.0 W/m2 CLR
10:49 13.4 °F 6.5 °F 1011.7 in Calm     63 % 0.0 in 315.0 W/m2 CLR
10:54 13.6 °F 6.4 °F 1011.7 in NW 5.6 mph 5.6 mph 62 % 0.0 in 341.0 W/m2 CLR
10:59 13.9 °F 6.5 °F 1011.7 in Calm     61 % 0.0 in 369.0 W/m2 CLR
11:04 14.2 °F 6.6 °F 1011.7 in WNW 18.5 mph 18.5 mph 60 % 0.0 in 563.0 W/m2 CLR
11:09 14.6 °F 6.6 °F 1011.4 in NNW 13.0 mph 13.0 mph 59 % 0.0 in 534.0 W/m2 CLR
11:14 14.7 °F 6.5 °F 1011.4 in NNW 12.9 mph 12.9 mph 58 % 0.0 in 438.0 W/m2 CLR
11:19 14.8 °F 6.3 °F 1011.4 in NNW 18.5 mph 18.5 mph 57 % 0.0 in 348.0 W/m2 CLR
11:24 15.1 °F 6.6 °F 1011.4 in NW 29.6 mph 29.6 mph 57 % 0.0 in 712.0 W/m2 CLR
11:29 15.1 °F 6.7 °F 1011.4 in NW 25.9 mph 25.9 mph 57 % 0.0 in 749.0 W/m2 CLR
11:34 15.2 °F 6.4 °F 1011.4 in NW 27.8 mph 27.8 mph 56 % 0.0 in 777.0 W/m2 CLR
11:39 15.3 °F 6.6 °F 1011.4 in West 18.5 mph 18.5 mph 56 % 0.0 in 738.0 W/m2 CLR
11:44 15.7 °F 6.4 °F 1011.4 in NNW 24.1 mph 24.1 mph 54 % 0.0 in 603.0 W/m2 CLR
11:49 15.6 °F 6.6 °F 1011.4 in West 20.4 mph 20.4 mph 55 % 0.0 in 584.0 W/m2 CLR
11:54 15.7 °F 5.6 °F 1011.4 in West 20.4 mph 20.4 mph 51 % 0.0 in 645.0 W/m2 CLR
11:59 15.7 °F 6.1 °F 1011.4 in WNW 18.5 mph 18.5 mph 53 % 0.0 in 338.0 W/m2 CLR
12:04 15.7 °F 5.3 °F 1011.4 in WNW 33.3 mph 33.3 mph 50 % 0.0 in 345.0 W/m2 CLR
12:09 15.6 °F 5.2 °F 1011.4 in NNW 31.5 mph 31.5 mph 50 % 0.0 in 334.0 W/m2 CLR
12:14 15.6 °F 5.4 °F 1011.4 in WNW 29.0 mph 29.0 mph 51 % 0.0 in 338.0 W/m2 CLR
12:19 15.4 °F 5.3 °F 1011.4 in NW 31.5 mph 31.5 mph 51 % 0.0 in 350.0 W/m2 CLR
12:24 15.7 °F 5.8 °F 1011.1 in WNW 18.5 mph 18.5 mph 52 % 0.0 in 364.0 W/m2 CLR
12:29 15.8 °F 5.7 °F 1011.4 in West 33.3 mph 33.3 mph 51 % 0.0 in 459.0 W/m2 CLR
12:34 15.9 °F 5.4 °F 1011.1 in WNW 33.3 mph 33.3 mph 50 % 0.0 in 504.0 W/m2 CLR
12:39 15.9 °F 5.4 °F 1011.1 in West 35.2 mph 35.2 mph 50 % 0.0 in 415.0 W/m2 CLR
12:44 15.9 °F 5.8 °F 1010.7 in West 38.9 mph 38.9 mph 51 % 0.0 in 434.0 W/m2 CLR
12:49 15.9 °F 5.2 °F 1010.7 in West 40.7 mph 40.7 mph 49 % 0.0 in 424.0 W/m2 CLR
12:54 15.7 °F 5.6 °F 1010.7 in NW 37.0 mph 37.0 mph 51 % 0.0 in 306.0 W/m2 CLR
12:59 16.0 °F 5.3 °F 1010.7 in West 31.5 mph 31.5 mph 49 % 0.0 in 571.0 W/m2 CLR
13:04 16.3 °F 5.6 °F 1010.4 in NW 31.5 mph 31.5 mph 49 % 0.0 in 650.0 W/m2 CLR
13:09 16.8 °F 6.6 °F 1010.4 in West 27.8 mph 27.8 mph 51 % 0.0 in 605.0 W/m2 CLR
13:14 17.0 °F 6.2 °F 1010.4 in WNW 33.8 mph 33.8 mph 49 % 0.0 in 649.0 W/m2 CLR
13:19 16.8 °F 5.1 °F 1010.4 in West 35.2 mph 35.2 mph 46 % 0.0 in 647.0 W/m2 CLR
13:24 16.4 °F 5.4 °F 1010.4 in WNW 38.6 mph 38.6 mph 48 % 0.0 in 445.0 W/m2 CLR
13:29 16.1 °F 5.1 °F 1010.0 in NW 38.6 mph 38.6 mph 48 % 0.0 in 397.0 W/m2 CLR
13:35 16.2 °F 5.4 °F 1010.0 in WNW 37.0 mph 37.0 mph 49 % 0.0 in 373.0 W/m2 CLR
13:40 16.3 °F 5.3 °F 1010.0 in West 29.6 mph 29.6 mph 48 % 0.0 in 497.0 W/m2 CLR
13:45 16.5 °F 5.4 °F 1010.0 in WNW 40.7 mph 40.7 mph 48 % 0.0 in 652.0 W/m2 CLR
13:50 16.6 °F 5.2 °F 1010.0 in WNW 40.7 mph 40.7 mph 47 % 0.0 in 540.0 W/m2 CLR
13:55 16.7 °F 5.3 °F 1009.7 in West 48.1 mph 48.1 mph 47 % 0.0 in 464.0 W/m2 CLR
14:00 16.8 °F 5.7 °F 1009.7 in West 33.3 mph 33.3 mph 48 % 0.0 in 357.0 W/m2 CLR
14:05 16.8 °F 5.4 °F 1009.7 in WSW 40.2 mph 40.2 mph 47 % 0.0 in 439.0 W/m2 CLR
14:10 16.8 °F 5.1 °F 1009.7 in NW 46.3 mph 46.3 mph 46 % 0.0 in 613.0 W/m2 CLR
14:15 17.1 °F 5.7 °F 1009.7 in WNW 51.8 mph 51.8 mph 47 % 0.0 in 650.0 W/m2 CLR
14:20 17.4 °F 5.7 °F 1009.7 in WNW 51.8 mph 51.8 mph 46 % 0.0 in 598.0 W/m2 CLR
14:25 17.3 °F 5.3 °F 1009.7 in NNW 51.8 mph 51.8 mph 45 % 0.0 in 499.0 W/m2 CLR
14:30 17.1 °F 5.3 °F 1009.7 in WNW 53.7 mph 53.7 mph 46 % 0.0 in 406.0 W/m2 CLR
14:35 17.3 °F 5.8 °F 1009.4 in NW 42.6 mph 42.6 mph 47 % 0.0 in 719.0 W/m2 CLR
14:40 17.4 °F 5.4 °F 1009.4 in West 55.5 mph 55.5 mph 45 % 0.0 in 570.0 W/m2 CLR
14:45 17.6 °F 6.1 °F 1009.0 in West 35.2 mph 35.2 mph 47 % 0.0 in 587.0 W/m2 CLR
14:50 17.6 °F 5.5 °F 1009.0 in WNW 44.4 mph 44.4 mph 45 % 0.0 in 596.0 W/m2 CLR
14:55 18.0 °F 5.9 °F 1009.4 in West 42.6 mph 42.6 mph 45 % 0.0 in 557.0 W/m2 CLR
15:00 17.7 °F 5.0 °F 1009.0 in WNW 42.6 mph 42.6 mph 43 % 0.0 in 441.0 W/m2 CLR
15:05 17.4 °F 5.1 °F 1009.0 in West 37.0 mph 37.0 mph 44 % 0.0 in 413.0 W/m2 CLR
15:10 17.4 °F 5.4 °F 1009.0 in WNW 48.1 mph 48.1 mph 45 % 0.0 in 508.0 W/m2 CLR
15:15 17.7 °F 5.6 °F 1009.0 in WNW 46.3 mph 46.3 mph 45 % 0.0 in 555.0 W/m2 CLR
15:20 17.6 °F 5.5 °F 1009.0 in NW 43.4 mph 43.4 mph 45 % 0.0 in 519.0 W/m2 CLR
15:25 17.7 °F 5.6 °F 1009.0 in WNW 35.2 mph 35.2 mph 45 % 0.0 in 548.0 W/m2 CLR
15:30 18.0 °F 5.9 °F 1009.0 in NW 29.6 mph 29.6 mph 45 % 0.0 in 612.0 W/m2 CLR
15:35 17.8 °F 5.4 °F 1009.0 in West 48.1 mph 48.1 mph 44 % 0.0 in 146.0 W/m2 CLR
15:40 17.9 °F 5.5 °F 1009.0 in West 31.5 mph 31.5 mph 44 % 0.0 in 524.0 W/m2 CLR
15:45 17.7 °F 5.6 °F 1009.0 in West 37.0 mph 37.0 mph 45 % 0.0 in 531.0 W/m2 CLR
15:50 17.6 °F 5.8 °F 1009.0 in WNW 41.8 mph 41.8 mph 46 % 0.0 in 163.0 W/m2 CLR
15:55 17.3 °F 5.2 °F 1009.0 in WNW 33.3 mph 33.3 mph 45 % 0.0 in 132.0 W/m2 CLR
16:00 17.2 °F 5.5 °F 1009.0 in NW 33.3 mph 33.3 mph 46 % 0.0 in 167.0 W/m2 CLR
16:05 17.3 °F 5.6 °F 1009.4 in WNW 33.3 mph 33.3 mph 46 % 0.0 in 153.0 W/m2 CLR
16:10 17.3 °F 5.2 °F 1009.0 in West 38.9 mph 38.9 mph 45 % 0.0 in 172.0 W/m2 CLR
16:15 17.3 °F 5.2 °F 1009.4 in NW 37.0 mph 37.0 mph 45 % 0.0 in 134.0 W/m2 CLR
16:20 17.2 °F 5.5 °F 1009.4 in NW 24.1 mph 24.1 mph 46 % 0.0 in 134.0 W/m2 CLR
16:25 17.2 °F 5.5 °F 1009.4 in NW 25.7 mph 25.7 mph 46 % 0.0 in 134.0 W/m2 CLR
16:30 17.2 °F 5.5 °F 1009.4 in NNW 31.5 mph 31.5 mph 46 % 0.0 in 144.0 W/m2 CLR
16:35 17.4 °F 5.7 °F 1009.4 in WNW 31.5 mph 31.5 mph 46 % 0.0 in 120.0 W/m2 CLR
16:40 17.3 °F 5.3 °F 1009.4 in NW 29.6 mph 29.6 mph 45 % 0.0 in 123.0 W/m2 CLR
16:45 17.2 °F 5.4 °F 1009.4 in NW 33.3 mph 33.3 mph 46 % 0.0 in 79.0 W/m2 CLR
16:50 17.1 °F 5.3 °F 1009.4 in NW 31.5 mph 31.5 mph 46 % 0.0 in 97.0 W/m2 CLR
16:55 17.0 °F 5.3 °F 1009.4 in WNW 43.4 mph 43.4 mph 46 % 0.0 in 91.0 W/m2 CLR
17:00 17.0 °F 5.6 °F 1009.4 in NW 35.2 mph 35.2 mph 47 % 0.0 in 86.0 W/m2 CLR
17:05 17.0 °F 5.6 °F 1009.7 in NNW 35.4 mph 35.4 mph 47 % 0.0 in 102.0 W/m2 CLR
17:10 17.0 °F 5.6 °F 1009.7 in NNW 40.7 mph 40.7 mph 47 % 0.0 in 107.0 W/m2 CLR
17:15 16.9 °F 5.6 °F 1009.7 in NNW 31.5 mph 31.5 mph 47 % 0.0 in 72.0 W/m2 CLR
17:20 16.9 °F 5.8 °F 1010.0 in NW 35.2 mph 35.2 mph 48 % 0.0 in 93.0 W/m2 FEW
17:25 16.8 °F 5.4 °F 1010.0 in NNW 54.7 mph 54.7 mph 47 % 0.0 in 79.0 W/m2 FEW
17:30 16.7 °F 5.1 °F 1010.4 in NW 44.4 mph 44.4 mph 46 % 0.0 in 53.0 W/m2 FEW
17:40 16.6 °F 4.9 °F 1010.4 in NW 37.0 mph 37.0 mph 46 % 0.0 in 60.0 W/m2 SCT
17:45 16.6 °F 4.9 °F 1010.4 in NW 51.5 mph 51.5 mph 46 % 0.0 in 72.0 W/m2 SCT
17:50 16.6 °F 4.9 °F 1010.4 in NW 38.9 mph 38.9 mph 46 % 0.0 in 60.0 W/m2 SCT
17:55 16.6 °F 4.9 °F 1010.4 in NNW 42.6 mph 42.6 mph 46 % 0.0 in 30.0 W/m2 BKN
18:00 16.5 °F 4.8 °F 1010.7 in NW 42.6 mph 42.6 mph 46 % 0.0 in 18.0 W/m2 BKN
18:05 16.4 °F 5.1 °F 1010.7 in NW 29.6 mph 29.6 mph 47 % 0.0 in 14.0 W/m2 BKN
18:10 16.5 °F 4.8 °F 1010.7 in NW 37.0 mph 37.0 mph 46 % 0.0 in 16.0 W/m2 BKN
18:15 16.4 °F 5.1 °F 1011.4 in NW 62.9 mph 62.9 mph 47 % 0.0 in 12.0 W/m2 BKN
18:20 15.5 °F 5.4 °F 1011.4 in NNW 55.5 mph 55.5 mph 51 % 0.0 in 11.0 W/m2 BKN
18:25 15.0 °F 5.5 °F 1011.7 in North 50.0 mph 50.0 mph 53 % 0.0 in 7.0 W/m2 BKN
18:30 14.7 °F 5.8 °F 1012.1 in NNW 50.0 mph 50.0 mph 55 % 0.0 in 9.0 W/m2 BKN
18:35 14.1 °F 5.7 °F 1012.1 in NW 53.7 mph 53.7 mph 57 % 0.0 in 7.0 W/m2 BKN
18:40 13.5 °F 5.9 °F 1012.4 in NNW 53.7 mph 53.7 mph 60 % 0.0 in 5.0 W/m2
18:45 13.1 °F 5.9 °F 1012.8 in NNW 40.7 mph 40.7 mph 62 % 0.0 in 0.0 W/m2 OVC
18:50 12.7 °F 5.8 °F 1013.1 in NW 44.4 mph 44.4 mph 63 % 0.0 in 0.0 W/m2 OVC
18:55 12.4 °F 5.6 °F 1013.4 in NNW 48.1 mph 48.1 mph 63 % 0.0 in 0.0 W/m2 OVC
19:00 12.2 °F 5.6 °F 1013.8 in NW 33.3 mph 33.3 mph 64 % 0.0 in 0.0 W/m2 CLR
19:05 12.0 °F 5.2 °F 1013.8 in NNW 46.3 mph 46.3 mph 63 % 0.0 in 0.0 W/m2 CLR
19:10 11.8 °F 4.7 °F 1013.8 in NW 37.0 mph 37.0 mph 62 % 0.0 in 0.0 W/m2 CLR
19:16 11.5 °F 4.2 °F 1014.1 in NNW 31.5 mph 31.5 mph 61 % 0.0 in 0.0 W/m2 CLR
19:21 11.2 °F 3.9 °F 1014.4 in NNW 37.0 mph 37.0 mph 61 % 0.0 in 0.0 W/m2 CLR
19:26 10.9 °F 3.7 °F 1014.8 in NNW 33.3 mph 33.3 mph 61 % 0.0 in 0.0 W/m2 CLR
19:31 10.8 °F 3.8 °F 1014.8 in NNW 31.5 mph 31.5 mph 62 % 0.0 in 0.0 W/m2 CLR
19:36 10.6 °F 3.8 °F 1015.1 in WNW 33.3 mph 33.3 mph 63 % 0.0 in 0.0 W/m2 CLR
19:41 10.4 °F 3.4 °F 1015.1 in NW 33.3 mph 33.3 mph 62 % 0.0 in 0.0 W/m2 CLR
19:46 10.3 °F 3.4 °F 1015.5 in NNW 44.4 mph 44.4 mph 62 % 0.0 in 0.0 W/m2 CLR
19:51 10.2 °F 3.5 °F 1015.5 in NNW 38.9 mph 38.9 mph 63 % 0.0 in 0.0 W/m2 CLR
19:56 10.2 °F 3.5 °F 1015.5 in WNW 42.6 mph 42.6 mph 63 % 0.0 in 0.0 W/m2 CLR
20:01 10.2 °F 3.5 °F 1015.5 in NW 42.6 mph 42.6 mph 63 % 0.0 in 0.0 W/m2 CLR
20:06 10.1 °F 3.4 °F 1015.5 in NW 38.9 mph 38.9 mph 63 % 0.0 in 0.0 W/m2 CLR
20:11 10.0 °F 3.3 °F 1015.5 in NW 31.5 mph 31.5 mph 63 % 0.0 in 0.0 W/m2 CLR
20:16 9.9 °F 3.4 °F 1015.8 in NNW 35.4 mph 35.4 mph 64 % 0.0 in 0.0 W/m2 CLR
20:21 9.8 °F 3.3 °F 1015.8 in NNW 46.3 mph 46.3 mph 64 % 0.0 in 0.0 W/m2 CLR
20:26 9.8 °F 3.5 °F 1016.1 in NW 44.4 mph 44.4 mph 65 % 0.0 in 0.0 W/m2 CLR
20:31 9.7 °F 3.6 °F 1016.1 in NW 33.3 mph 33.3 mph 66 % 0.0 in 0.0 W/m2 CLR
20:36 9.6 °F 3.8 °F 1015.8 in WNW 38.9 mph 38.9 mph 67 % 0.0 in 0.0 W/m2 CLR
20:41 9.6 °F 3.7 °F 1016.1 in NW 44.4 mph 44.4 mph 67 % 0.0 in 0.0 W/m2 CLR
20:46 9.4 °F 3.8 °F 1015.8 in WNW 37.0 mph 37.0 mph 68 % 0.0 in 0.0 W/m2 CLR
20:51 9.3 °F 3.9 °F 1016.1 in WNW 35.2 mph 35.2 mph 69 % 0.0 in 0.0 W/m2 CLR
20:56 9.2 °F 4.0 °F 1016.1 in WNW 35.2 mph 35.2 mph 70 % 0.0 in 0.0 W/m2 CLR
21:01 9.1 °F 4.1 °F 1016.1 in WNW 25.9 mph 25.9 mph 71 % 0.0 in 0.0 W/m2 CLR
21:06 9.0 °F 4.0 °F 1016.5 in NW 29.6 mph 29.6 mph 71 % 0.0 in 0.0 W/m2 CLR
21:11 9.1 °F 4.1 °F 1016.8 in NW 31.5 mph 31.5 mph 71 % 0.0 in 0.0 W/m2 CLR
21:16 9.1 °F 4.1 °F 1016.5 in NW 37.0 mph 37.0 mph 71 % 0.0 in 0.0 W/m2 CLR
21:21 9.1 °F 4.1 °F 1016.8 in NW 25.9 mph 25.9 mph 71 % 0.0 in 0.0 W/m2 CLR
21:26 9.1 °F 4.1 °F 1016.8 in WNW 27.8 mph 27.8 mph 71 % 0.0 in 0.0 W/m2 CLR
21:31 9.1 °F 4.3 °F 1016.8 in WNW 29.6 mph 29.6 mph 72 % 0.0 in 0.0 W/m2 CLR
21:36 9.1 °F 4.4 °F 1016.8 in WNW 22.5 mph 22.5 mph 73 % 0.0 in 0.0 W/m2 CLR
21:41 9.0 °F 4.4 °F 1016.8 in NW 24.1 mph 24.1 mph 73 % 0.0 in 0.0 W/m2 CLR
21:46 9.0 °F 4.4 °F 1016.8 in NNW 18.5 mph 18.5 mph 73 % 0.0 in 0.0 W/m2 CLR
21:51 8.9 °F 4.4 °F 1016.8 in WNW 29.6 mph 29.6 mph 73 % 0.0 in 0.0 W/m2 CLR
21:56 8.8 °F 4.3 °F 1016.8 in WNW 16.7 mph 16.7 mph 73 % 0.0 in 0.0 W/m2 CLR
22:01 8.7 °F 4.3 °F 1017.2 in WNW 24.1 mph 24.1 mph 74 % 0.0 in 0.0 W/m2 CLR
22:06 8.7 °F 4.3 °F 1017.2 in WNW 31.5 mph 31.5 mph 74 % 0.0 in 0.0 W/m2 CLR
22:11 8.7 °F 4.3 °F 1017.2 in NW 29.6 mph 29.6 mph 74 % 0.0 in 0.0 W/m2 CLR
22:16 8.7 °F 4.6 °F 1017.2 in WNW 20.4 mph 20.4 mph 75 % 0.0 in 0.0 W/m2 CLR
22:21 8.7 °F 4.7 °F 1017.2 in WNW 22.2 mph 22.2 mph 76 % 0.0 in 0.0 W/m2 CLR
22:26 8.6 °F 4.8 °F 1017.2 in WNW 20.4 mph 20.4 mph 77 % 0.0 in 0.0 W/m2 CLR
22:31 8.6 °F 4.8 °F 1017.2 in WNW 20.9 mph 20.9 mph 77 % 0.0 in 0.0 W/m2 CLR
22:36 8.5 °F 4.7 °F 1017.5 in West 18.5 mph 18.5 mph 77 % 0.0 in 0.0 W/m2 CLR
22:41 8.5 °F 4.7 °F 1017.5 in West 18.5 mph 18.5 mph 77 % 0.0 in 0.0 W/m2 CLR
22:46 8.5 °F 4.7 °F 1017.5 in WNW 18.5 mph 18.5 mph 77 % 0.0 in 0.0 W/m2 CLR
22:51 8.5 °F 4.7 °F 1017.5 in West 22.2 mph 22.2 mph 77 % 0.0 in 0.0 W/m2 CLR
22:56 8.6 °F 4.6 °F 1017.5 in WNW 16.7 mph 16.7 mph 76 % 0.0 in 0.0 W/m2 CLR
23:01 8.6 °F 4.6 °F 1017.5 in West 20.4 mph 20.4 mph 76 % 0.0 in 0.0 W/m2 CLR
23:06 8.6 °F 4.4 °F 1017.5 in WNW 25.9 mph 25.9 mph 75 % 0.0 in 0.0 W/m2 CLR
23:11 8.6 °F 4.2 °F 1017.5 in West 24.1 mph 24.1 mph 74 % 0.0 in 0.0 W/m2 CLR
23:16 8.7 °F 4.3 °F 1017.8 in WNW 27.8 mph 27.8 mph 74 % 0.0 in 0.0 W/m2 CLR
23:21 8.6 °F 4.2 °F 1017.8 in WNW 32.2 mph 32.2 mph 74 % 0.0 in 0.0 W/m2 CLR
23:26 8.6 °F 4.2 °F 1017.8 in West 24.1 mph 24.1 mph 74 % 0.0 in 0.0 W/m2 CLR
23:31 8.6 °F 4.2 °F 1017.8 in NW 31.5 mph 31.5 mph 74 % 0.0 in 0.0 W/m2 CLR
23:36 8.6 °F 4.2 °F 1017.8 in WNW 22.2 mph 22.2 mph 74 % 0.0 in 0.0 W/m2 CLR
23:41 8.6 °F 4.2 °F 1018.2 in WNW 25.7 mph 25.7 mph 74 % 0.0 in 0.0 W/m2 CLR
23:46 8.6 °F 4.2 °F 1018.2 in WNW 18.5 mph 18.5 mph 74 % 0.0 in 0.0 W/m2 CLR
23:51 8.7 °F 4.3 °F 1018.2 in NW 22.5 mph 22.5 mph 74 % 0.0 in 0.0 W/m2 CLR
23:56 8.7 °F 4.3 °F 1018.2 in West 20.4 mph 20.4 mph 74 % 0.0 in 0.0 W/m2 CLR
Lo Temps de Massalio
Compliments of Weather Underground - 1.25 mb